createdAt,value
2023-01-19T05:01:42.040Z,4.35
2023-01-19T05:05:44.728Z,4.28
2023-01-19T05:09:47.403Z,4.20
2023-01-19T05:13:51.005Z,4.30
2023-01-19T05:17:57.939Z,4.13
2023-01-19T05:22:01.096Z,4.72
2023-01-19T05:26:04.209Z,4.55
2023-01-19T05:30:08.128Z,4.90
2023-01-19T05:34:14.494Z,5.63
2023-01-19T05:38:20.946Z,4.93
2023-01-19T05:42:33.025Z,4.63
2023-01-19T05:46:35.880Z,4.80
2023-01-19T05:50:49.780Z,4.80
2023-01-19T05:54:54.626Z,4.70
2023-01-19T05:58:57.473Z,3.85
2023-01-19T06:03:00.839Z,5.40
2023-01-19T06:07:06.578Z,4.68
2023-01-19T06:11:09.535Z,5.10
2023-01-19T06:15:14.411Z,5.13
2023-01-19T06:19:17.148Z,6.60
2023-01-19T06:23:21.193Z,4.95
2023-01-19T06:27:23.977Z,7.45
2023-01-19T06:31:26.873Z,6.25
2023-01-19T06:35:29.617Z,6.25
2023-01-19T06:39:33.667Z,6.05
2023-01-19T06:43:36.405Z,6.13
2023-01-19T06:47:39.152Z,6.05
2023-01-19T06:51:41.987Z,5.88
2023-01-19T06:55:46.440Z,5.97
2023-01-19T06:59:49.138Z,7.15
2023-01-19T07:03:51.847Z,6.50
2023-01-19T07:07:57.720Z,6.32
2023-01-19T07:12:01.679Z,6.72
2023-01-19T07:16:09.127Z,6.95
2023-01-19T07:20:14.488Z,6.00
2023-01-19T07:24:17.416Z,5.53
2023-01-19T07:28:21.960Z,5.72
2023-01-19T07:32:24.664Z,7.22
2023-01-19T07:36:27.402Z,5.88
2023-01-19T07:40:30.114Z,6.22
2023-01-19T07:44:34.329Z,5.75
2023-01-19T07:48:37.271Z,6.72
2023-01-19T07:52:48.168Z,6.47
2023-01-19T07:56:50.798Z,7.07
2023-01-19T08:00:55.008Z,6.30
2023-01-19T08:05:04.340Z,6.57
2023-01-19T08:09:07.512Z,6.43
2023-01-19T08:13:10.072Z,5.88
2023-01-19T08:17:14.590Z,6.33
2023-01-19T08:21:17.554Z,6.53
2023-01-19T08:25:20.048Z,6.00
2023-01-19T08:29:22.557Z,6.53
2023-01-19T08:33:26.417Z,6.77
2023-01-19T08:37:28.894Z,6.32
2023-01-19T08:41:32.352Z,5.70
2023-01-19T08:45:35.157Z,6.43
2023-01-19T08:49:40.787Z,6.10
2023-01-19T08:53:43.741Z,4.80
2023-01-19T08:57:46.224Z,4.55
2023-01-19T09:01:48.922Z,5.03
2023-01-19T09:05:52.839Z,5.05
2023-01-19T09:09:55.441Z,4.60
2023-01-19T09:13:57.964Z,5.10
2023-01-19T09:18:00.814Z,5.40
2023-01-19T09:22:05.861Z,4.90
2023-01-19T09:26:08.451Z,5.13
2023-01-19T09:30:13.216Z,4.90
2023-01-19T09:34:15.730Z,5.95
2023-01-19T09:38:20.316Z,5.47
2023-01-19T09:42:31.375Z,4.78
2023-01-19T09:46:39.661Z,5.30
2023-01-19T09:50:46.635Z,5.28
2023-01-19T09:54:55.192Z,4.88
2023-01-19T09:58:57.737Z,4.85
2023-01-19T10:03:11.651Z,5.60
2023-01-19T10:07:24.295Z,5.10
2023-01-19T10:11:51.557Z,6.50
2023-01-19T10:16:03.707Z,6.20
2023-01-19T10:20:14.664Z,6.75
2023-01-19T10:24:21.955Z,5.75
2023-01-19T10:28:28.061Z,6.78
2023-01-19T10:32:35.813Z,6.10
2023-01-19T10:36:40.982Z,6.57
2023-01-19T10:40:51.612Z,5.82
2023-01-19T10:44:55.587Z,6.55
2023-01-19T10:48:58.241Z,6.80
2023-01-19T10:53:03.684Z,6.40
2023-01-19T10:57:10.343Z,6.30
2023-01-19T11:01:20.822Z,6.25
2023-01-19T11:05:26.868Z,7.00
2023-01-19T11:09:30.486Z,7.28
2023-01-19T11:13:33.263Z,6.47
2023-01-19T11:17:37.511Z,7.10
2023-01-19T11:21:40.112Z,6.13
2023-01-19T11:25:48.449Z,6.93
2023-01-19T11:29:58.818Z,5.70
2023-01-19T11:34:04.154Z,6.25
2023-01-19T11:38:18.189Z,6.00
2023-01-19T11:42:21.294Z,5.75
2023-01-19T11:46:27.556Z,5.72
2023-01-19T11:50:35.655Z,5.72
2023-01-19T11:54:46.137Z,5.28
2023-01-19T11:58:48.700Z,5.82
2023-01-19T12:02:56.574Z,5.10
2023-01-19T12:07:05.020Z,5.07
2023-01-19T12:11:11.490Z,4.95
2023-01-19T12:15:25.080Z,5.55
2023-01-19T12:23:44.459Z,4.78
2023-01-19T12:27:48.641Z,4.85
2023-01-19T12:32:18.497Z,4.63
2023-01-19T12:36:38.513Z,4.75
2023-01-19T12:40:42.525Z,4.80
2023-01-19T12:44:47.016Z,4.32
2023-01-19T12:48:49.576Z,4.00
2023-01-19T12:52:58.286Z,4.40
2023-01-19T12:57:06.977Z,4.40
2023-01-19T13:01:15.361Z,4.18
2023-01-19T13:05:23.286Z,4.07
2023-01-19T13:09:30.623Z,4.65
2023-01-19T13:13:36.661Z,5.53
2023-01-19T13:17:50.625Z,4.97
2023-01-19T13:21:54.902Z,4.55
2023-01-19T13:26:04.700Z,4.40
2023-01-19T13:30:17.996Z,4.00
2023-01-19T13:34:24.211Z,3.97
2023-01-19T13:38:29.343Z,4.32
2023-01-19T13:42:36.988Z,4.32
2023-01-19T13:46:41.937Z,4.07
2023-01-19T13:50:58.128Z,4.30
2023-01-19T13:55:03.779Z,4.97
2023-01-19T13:59:12.430Z,5.80
2023-01-19T14:03:23.586Z,5.38
2023-01-19T14:07:27.061Z,5.03
2023-01-19T14:11:29.591Z,4.40
2023-01-19T14:15:34.410Z,5.50
2023-01-19T14:19:52.920Z,4.80
2023-01-19T14:24:06.531Z,5.05
2023-01-19T14:32:30.768Z,5.13
2023-01-19T14:36:39.181Z,5.00
2023-01-19T14:40:41.708Z,4.57
2023-01-19T14:44:48.529Z,4.73
2023-01-19T14:48:53.661Z,4.45
2023-01-19T14:53:00.465Z,4.90
2023-01-19T14:57:03.001Z,4.88
2023-01-19T15:01:06.336Z,4.63
2023-01-19T15:09:14.993Z,5.40
2023-01-19T15:13:21.426Z,5.22
2023-01-19T15:17:26.172Z,9.30
2023-01-19T15:21:28.695Z,4.03
2023-01-19T15:25:32.679Z,4.40
2023-01-19T15:29:35.219Z,4.43
2023-01-19T15:33:37.735Z,5.57
2023-01-19T15:37:40.295Z,4.63
2023-01-19T15:41:44.228Z,6.33
2023-01-19T15:45:51.351Z,5.30
2023-01-19T15:49:53.938Z,4.45
2023-01-19T15:53:56.958Z,4.50
2023-01-19T15:58:02.306Z,4.22
2023-01-19T16:02:05.790Z,3.92
2023-01-19T16:06:08.666Z,7.57
2023-01-19T16:10:12.740Z,7.15
2023-01-19T16:14:17.582Z,6.30
2023-01-19T16:18:20.297Z,6.40
2023-01-19T16:22:22.781Z,6.43
2023-01-19T16:26:28.209Z,7.53
2023-01-19T16:30:32.060Z,5.68
2023-01-19T16:34:34.530Z,6.28
2023-01-19T16:38:36.999Z,9.75
2023-01-19T16:42:40.737Z,16.83
2023-01-19T16:46:46.425Z,11.43
2023-01-19T16:50:58.758Z,6.90
2023-01-19T16:55:01.289Z,7.03
2023-01-19T16:59:03.795Z,5.87
2023-01-19T17:03:07.689Z,5.60
2023-01-19T17:07:10.324Z,6.82
2023-01-19T17:11:19.357Z,7.50
2023-01-19T17:15:21.885Z,7.53
2023-01-19T17:19:26.879Z,11.52
2023-01-19T17:23:29.759Z,7.43
2023-01-19T17:27:32.302Z,5.70
2023-01-19T17:31:35.759Z,5.53
2023-01-19T17:39:42.227Z,5.60
2023-01-19T17:43:45.577Z,5.50
2023-01-19T17:47:49.328Z,5.72
2023-01-19T17:51:54.939Z,5.80
2023-01-19T17:56:03.827Z,12.23
2023-01-19T18:00:08.395Z,12.55
2023-01-19T18:04:16.941Z,13.20
2023-01-19T18:08:20.769Z,9.33
2023-01-19T18:12:23.570Z,6.15
2023-01-19T18:16:28.338Z,6.65
2023-01-19T18:20:32.185Z,17.17
2023-01-19T18:24:36.027Z,15.80
2023-01-19T18:28:39.001Z,9.05
2023-01-19T18:32:41.496Z,8.85
2023-01-19T18:36:44.421Z,6.00
2023-01-19T18:40:48.247Z,7.32
2023-01-19T18:44:50.744Z,6.50
2023-01-19T18:48:54.086Z,6.70
2023-01-19T18:52:56.748Z,6.25
2023-01-19T18:57:00.568Z,9.50
2023-01-19T19:01:03.100Z,9.43
2023-01-19T19:05:06.161Z,9.80
2023-01-19T19:09:08.681Z,8.32
2023-01-19T19:13:14.469Z,9.10
2023-01-19T19:17:16.975Z,8.13
2023-01-19T19:21:23.931Z,11.93
2023-01-19T19:25:26.416Z,10.05
2023-01-19T19:29:30.400Z,9.93
2023-01-19T19:33:32.983Z,10.73
2023-01-19T19:37:35.541Z,10.47
2023-01-19T19:41:38.798Z,16.77
2023-01-19T19:45:42.653Z,10.35
2023-01-19T19:49:45.228Z,10.45
2023-01-19T19:53:51.222Z,14.33
2023-01-19T19:57:54.791Z,10.35
2023-01-19T20:01:58.692Z,16.13
2023-01-19T20:06:04.149Z,8.85
2023-01-19T20:10:07.329Z,7.72
2023-01-19T20:14:11.657Z,14.30
2023-01-19T20:18:15.493Z,15.75
2023-01-19T20:22:18.021Z,21.85
2023-01-19T20:26:24.928Z,11.48
2023-01-19T20:30:28.213Z,12.82
2023-01-19T20:34:34.081Z,11.55
2023-01-19T20:38:36.747Z,12.68
2023-01-19T20:42:41.253Z,24.90
2023-01-19T20:46:44.131Z,26.40
2023-01-19T20:50:47.946Z,23.52
2023-01-19T20:54:52.108Z,18.35
2023-01-19T20:58:54.687Z,21.38
2023-01-19T21:02:57.338Z,20.23
2023-01-19T21:07:01.173Z,15.20
2023-01-19T21:11:04.114Z,17.60
2023-01-19T21:15:07.759Z,15.77
2023-01-19T21:19:10.372Z,13.00
2023-01-19T21:23:14.194Z,11.27
2023-01-19T21:27:16.719Z,9.18
2023-01-19T21:31:20.774Z,10.17
2023-01-19T21:35:23.385Z,10.60
2023-01-19T21:39:27.348Z,10.67
2023-01-19T21:43:29.836Z,16.50
2023-01-19T21:47:32.363Z,20.77
2023-01-19T21:51:37.227Z,20.73
2023-01-19T21:55:45.370Z,20.00
2023-01-19T21:59:47.836Z,15.15
